sensor_id;sensor_type;location;lat;lon;timestamp;temperature;humidity
1055;DHT22;516;51.482;7.120;2023-07-31T00:02:30;16.60;99.90
1055;DHT22;516;51.482;7.120;2023-07-31T00:08:17;16.50;99.90
1055;DHT22;516;51.482;7.120;2023-07-31T00:14:05;16.40;99.90
1055;DHT22;516;51.482;7.120;2023-07-31T00:19:53;16.70;99.90
1055;DHT22;516;51.482;7.120;2023-07-31T00:25:41;16.60;99.90
1055;DHT22;516;51.482;7.120;2023-07-31T00:31:29;16.60;99.90
1055;DHT22;516;51.482;7.120;2023-07-31T00:37:17;16.60;99.90
1055;DHT22;516;51.482;7.120;2023-07-31T00:52:58;16.60;99.90
1055;DHT22;516;51.482;7.120;2023-07-31T00:58:46;16.50;99.90
1055;DHT22;516;51.482;7.120;2023-07-31T01:04:34;16.50;99.90
1055;DHT22;516;51.482;7.120;2023-07-31T01:10:25;16.60;99.90
1055;DHT22;516;51.482;7.120;2023-07-31T01:16:14;16.60;99.90
1055;DHT22;516;51.482;7.120;2023-07-31T01:28:14;16.50;99.90
1055;DHT22;516;51.482;7.120;2023-07-31T01:34:03;16.50;99.90
1055;DHT22;516;51.482;7.120;2023-07-31T01:39:52;16.60;99.90
1055;DHT22;516;51.482;7.120;2023-07-31T01:42:37;16.60;99.90
1055;DHT22;516;51.482;7.120;2023-07-31T01:45:04;16.50;99.90
1055;DHT22;516;51.482;7.120;2023-07-31T01:50:52;16.40;99.90
1055;DHT22;516;51.482;7.120;2023-07-31T01:56:40;16.50;99.90
1055;DHT22;516;51.482;7.120;2023-07-31T02:02:27;16.50;99.90
1055;DHT22;516;51.482;7.120;2023-07-31T02:08:16;16.40;99.90
1055;DHT22;516;51.482;7.120;2023-07-31T02:14:04;16.00;99.90
1055;DHT22;516;51.482;7.120;2023-07-31T02:19:51;16.20;99.90
1055;DHT22;516;51.482;7.120;2023-07-31T02:25:39;16.10;99.90
1055;DHT22;516;51.482;7.120;2023-07-31T02:31:26;16.20;99.90
1055;DHT22;516;51.482;7.120;2023-07-31T02:37:14;16.20;99.90
1055;DHT22;516;51.482;7.120;2023-07-31T02:52:58;16.40;21.90
1055;DHT22;516;51.482;7.120;2023-07-31T02:58:46;16.30;40.00
1055;DHT22;516;51.482;7.120;2023-07-31T03:04:34;16.30;8.10
1055;DHT22;516;51.482;7.120;2023-07-31T03:10:21;16.40;1.00
1055;DHT22;516;51.482;7.120;2023-07-31T03:16:09;16.40;1.00
1055;DHT22;516;51.482;7.120;2023-07-31T03:21:57;16.40;1.00
1055;DHT22;516;51.482;7.120;2023-07-31T03:27:44;16.40;1.00
1055;DHT22;516;51.482;7.120;2023-07-31T03:33:32;16.40;1.00
1055;DHT22;516;51.482;7.120;2023-07-31T03:39:20;16.60;1.00
1055;DHT22;516;51.482;7.120;2023-07-31T03:45:07;16.50;1.00
1055;DHT22;516;51.482;7.120;2023-07-31T03:50:55;16.60;1.00
1055;DHT22;516;51.482;7.120;2023-07-31T03:56:43;16.50;1.00
1055;DHT22;516;51.482;7.120;2023-07-31T04:02:31;16.50;1.00
1055;DHT22;516;51.482;7.120;2023-07-31T04:08:19;16.80;1.00
1055;DHT22;516;51.482;7.120;2023-07-31T04:14:06;16.90;1.00
1055;DHT22;516;51.482;7.120;2023-07-31T04:19:54;16.90;1.00
1055;DHT22;516;51.482;7.120;2023-07-31T04:25:42;16.80;1.00
1055;DHT22;516;51.482;7.120;2023-07-31T04:31:29;16.80;1.00
1055;DHT22;516;51.482;7.120;2023-07-31T04:37:17;16.80;1.00
1055;DHT22;516;51.482;7.120;2023-07-31T04:53:01;16.80;1.00
1055;DHT22;516;51.482;7.120;2023-07-31T04:58:49;16.80;1.00
1055;DHT22;516;51.482;7.120;2023-07-31T05:04:37;16.80;1.50
1055;DHT22;516;51.482;7.120;2023-07-31T05:10:24;16.80;1.00
1055;DHT22;516;51.482;7.120;2023-07-31T05:16:12;17.00;1.00
1055;DHT22;516;51.482;7.120;2023-07-31T05:22:00;17.00;1.00
1055;DHT22;516;51.482;7.120;2023-07-31T05:27:47;17.00;1.00
1055;DHT22;516;51.482;7.120;2023-07-31T05:33:35;16.90;11.60
1055;DHT22;516;51.482;7.120;2023-07-31T05:39:23;17.00;9.10
1055;DHT22;516;51.482;7.120;2023-07-31T05:45:07;17.00;16.20
1055;DHT22;516;51.482;7.120;2023-07-31T05:50:55;17.10;1.00
1055;DHT22;516;51.482;7.120;2023-07-31T05:56:43;16.80;70.40
1055;DHT22;516;51.482;7.120;2023-07-31T06:02:30;16.70;99.90
1055;DHT22;516;51.482;7.120;2023-07-31T06:08:20;16.70;99.90
1055;DHT22;516;51.482;7.120;2023-07-31T06:14:08;16.80;96.50
1055;DHT22;516;51.482;7.120;2023-07-31T06:19:56;16.90;72.10
1055;DHT22;516;51.482;7.120;2023-07-31T06:25:44;16.90;87.40
1055;DHT22;516;51.482;7.120;2023-07-31T06:31:32;17.00;86.00
1055;DHT22;516;51.482;7.120;2023-07-31T06:37:20;16.90;99.90
1055;DHT22;516;51.482;7.120;2023-07-31T06:52:58;16.80;99.90
1055;DHT22;516;51.482;7.120;2023-07-31T06:58:45;16.90;99.90
1055;DHT22;516;51.482;7.120;2023-07-31T07:04:33;16.90;99.90
1055;DHT22;516;51.482;7.120;2023-07-31T07:10:21;17.00;99.90
1055;DHT22;516;51.482;7.120;2023-07-31T07:16:09;16.80;99.90
1055;DHT22;516;51.482;7.120;2023-07-31T07:21:57;16.70;99.90
1055;DHT22;516;51.482;7.120;2023-07-31T07:27:47;16.70;99.90
1055;DHT22;516;51.482;7.120;2023-07-31T07:33:35;16.80;99.90
1055;DHT22;516;51.482;7.120;2023-07-31T07:39:22;16.90;99.90
1055;DHT22;516;51.482;7.120;2023-07-31T07:45:08;17.00;99.90
1055;DHT22;516;51.482;7.120;2023-07-31T07:50:56;17.00;99.90
1055;DHT22;516;51.482;7.120;2023-07-31T07:56:43;17.00;99.90
1055;DHT22;516;51.482;7.120;2023-07-31T08:02:31;16.90;99.90
1055;DHT22;516;51.482;7.120;2023-07-31T08:08:19;16.80;99.90
1055;DHT22;516;51.482;7.120;2023-07-31T08:14:07;16.70;99.90
1055;DHT22;516;51.482;7.120;2023-07-31T08:19:55;16.60;99.90
1055;DHT22;516;51.482;7.120;2023-07-31T08:25:45;16.60;99.90
1055;DHT22;516;51.482;7.120;2023-07-31T08:31:34;16.90;99.90
1055;DHT22;516;51.482;7.120;2023-07-31T08:37:35;16.70;99.90
1055;DHT22;516;51.482;7.120;2023-07-31T08:47:11;16.70;99.90
1055;DHT22;516;51.482;7.120;2023-07-31T08:52:59;16.70;99.90
1055;DHT22;516;51.482;7.120;2023-07-31T08:58:46;16.70;99.90
1055;DHT22;516;51.482;7.120;2023-07-31T09:04:34;16.60;99.90
1055;DHT22;516;51.482;7.120;2023-07-31T09:10:22;16.70;99.90
1055;DHT22;516;51.482;7.120;2023-07-31T09:16:10;16.50;99.90
1055;DHT22;516;51.482;7.120;2023-07-31T09:21:58;16.30;99.90
1055;DHT22;516;51.482;7.120;2023-07-31T09:51:06;17.10;99.90
1055;DHT22;516;51.482;7.120;2023-07-31T09:56:54;17.00;99.90
1055;DHT22;516;51.482;7.120;2023-07-31T10:02:48;16.90;99.90
1055;DHT22;516;51.482;7.120;2023-07-31T10:08:37;17.10;99.90
1055;DHT22;516;51.482;7.120;2023-07-31T10:14:26;17.00;99.90
1055;DHT22;516;51.482;7.120;2023-07-31T10:20:16;16.90;99.90
1055;DHT22;516;51.482;7.120;2023-07-31T10:26:07;17.00;99.90
1055;DHT22;516;51.482;7.120;2023-07-31T10:31:57;16.90;99.90
1055;DHT22;516;51.482;7.120;2023-07-31T10:37:45;16.90;99.90
1055;DHT22;516;51.482;7.120;2023-07-31T10:47:14;16.80;99.90
1055;DHT22;516;51.482;7.120;2023-07-31T10:53:02;16.90;99.90
1055;DHT22;516;51.482;7.120;2023-07-31T11:05:47;17.20;99.90
1055;DHT22;516;51.482;7.120;2023-07-31T11:11:37;17.40;99.90
1055;DHT22;516;51.482;7.120;2023-07-31T11:17:26;17.50;82.80
1055;DHT22;516;51.482;7.120;2023-07-31T11:23:16;17.90;44.60
1055;DHT22;516;51.482;7.120;2023-07-31T11:29:11;18.10;1.00
1055;DHT22;516;51.482;7.120;2023-07-31T11:35:00;18.40;1.00
1055;DHT22;516;51.482;7.120;2023-07-31T11:40:48;18.10;1.00
1055;DHT22;516;51.482;7.120;2023-07-31T11:49:57;18.70;1.00
1055;DHT22;516;51.482;7.120;2023-07-31T11:55:45;18.90;1.00
1055;DHT22;516;51.482;7.120;2023-07-31T12:01:34;18.90;1.00
1055;DHT22;516;51.482;7.120;2023-07-31T12:07:21;19.40;1.00
1055;DHT22;516;51.482;7.120;2023-07-31T12:13:19;19.10;1.00
1055;DHT22;516;51.482;7.120;2023-07-31T12:19:27;18.80;1.00
1055;DHT22;516;51.482;7.120;2023-07-31T12:25:16;18.40;1.00
1055;DHT22;516;51.482;7.120;2023-07-31T12:31:05;18.40;1.00
1055;DHT22;516;51.482;7.120;2023-07-31T12:36:54;18.20;28.20
1055;DHT22;516;51.482;7.120;2023-07-31T12:42:41;18.10;30.00
1055;DHT22;516;51.482;7.120;2023-07-31T12:45:26;18.20;26.00
1055;DHT22;516;51.482;7.120;2023-07-31T12:47:52;18.30;1.00
1055;DHT22;516;51.482;7.120;2023-07-31T12:53:40;18.60;1.00
1055;DHT22;516;51.482;7.120;2023-07-31T12:59:28;18.90;1.00
1055;DHT22;516;51.482;7.120;2023-07-31T13:05:15;18.80;1.00
1055;DHT22;516;51.482;7.120;2023-07-31T13:11:03;18.50;1.00
1055;DHT22;516;51.482;7.120;2023-07-31T13:16:52;18.40;1.00
1055;DHT22;516;51.482;7.120;2023-07-31T13:22:39;18.30;49.10
1055;DHT22;516;51.482;7.120;2023-07-31T13:28:27;18.40;30.00
1055;DHT22;516;51.482;7.120;2023-07-31T13:34:15;18.90;1.00
1055;DHT22;516;51.482;7.120;2023-07-31T13:40:03;18.90;1.00
1055;DHT22;516;51.482;7.120;2023-07-31T13:55:46;18.80;1.00
1055;DHT22;516;51.482;7.120;2023-07-31T14:01:36;19.00;1.00
1055;DHT22;516;51.482;7.120;2023-07-31T14:07:23;19.20;1.00
1055;DHT22;516;51.482;7.120;2023-07-31T14:13:11;19.60;1.00
1055;DHT22;516;51.482;7.120;2023-07-31T14:18:59;20.00;1.00
1055;DHT22;516;51.482;7.120;2023-07-31T14:24:47;20.50;1.00
1055;DHT22;516;51.482;7.120;2023-07-31T14:30:34;21.20;1.00
1055;DHT22;516;51.482;7.120;2023-07-31T14:36:22;20.30;1.00
1055;DHT22;516;51.482;7.120;2023-07-31T14:42:10;20.10;1.00
1055;DHT22;516;51.482;7.120;2023-07-31T14:47:54;19.70;1.00
1055;DHT22;516;51.482;7.120;2023-07-31T14:53:42;19.30;1.00
1055;DHT22;516;51.482;7.120;2023-07-31T14:59:29;19.20;1.00
1055;DHT22;516;51.482;7.120;2023-07-31T15:05:17;18.80;1.00
1055;DHT22;516;51.482;7.120;2023-07-31T15:11:09;18.80;1.00
1055;DHT22;516;51.482;7.120;2023-07-31T15:16:57;18.60;1.00
1055;DHT22;516;51.482;7.120;2023-07-31T15:22:46;18.40;1.00
1055;DHT22;516;51.482;7.120;2023-07-31T15:28:35;18.60;1.00
1055;DHT22;516;51.482;7.120;2023-07-31T15:34:24;18.60;1.00
1055;DHT22;516;51.482;7.120;2023-07-31T15:40:12;18.70;1.00
1055;DHT22;516;51.482;7.120;2023-07-31T15:52:21;18.90;1.00
1055;DHT22;516;51.482;7.120;2023-07-31T15:58:10;19.00;1.00
1055;DHT22;516;51.482;7.120;2023-07-31T16:03:58;19.00;1.00
1055;DHT22;516;51.482;7.120;2023-07-31T16:09:46;19.10;1.00
1055;DHT22;516;51.482;7.120;2023-07-31T16:15:34;19.00;1.00
1055;DHT22;516;51.482;7.120;2023-07-31T16:21:21;18.40;1.00
1055;DHT22;516;51.482;7.120;2023-07-31T16:27:09;17.80;1.00
1055;DHT22;516;51.482;7.120;2023-07-31T16:32:57;17.70;42.60
1055;DHT22;516;51.482;7.120;2023-07-31T16:38:44;17.60;84.80
1055;DHT22;516;51.482;7.120;2023-07-31T16:44:32;17.70;73.30
1055;DHT22;516;51.482;7.120;2023-07-31T16:50:19;17.60;99.90
1055;DHT22;516;51.482;7.120;2023-07-31T16:56:07;17.80;30.80
1055;DHT22;516;51.482;7.120;2023-07-31T17:01:55;17.70;61.10
1055;DHT22;516;51.482;7.120;2023-07-31T17:07:45;17.60;99.90
1055;DHT22;516;51.482;7.120;2023-07-31T17:13:32;17.60;95.30
1055;DHT22;516;51.482;7.120;2023-07-31T17:19:20;17.60;99.90
1055;DHT22;516;51.482;7.120;2023-07-31T17:25:08;17.60;91.70
1055;DHT22;516;51.482;7.120;2023-07-31T17:30:56;17.40;99.90
1055;DHT22;516;51.482;7.120;2023-07-31T17:36:43;17.40;99.90
1055;DHT22;516;51.482;7.120;2023-07-31T17:42:31;17.40;99.90
1055;DHT22;516;51.482;7.120;2023-07-31T17:48:31;17.30;99.90
1055;DHT22;516;51.482;7.120;2023-07-31T17:54:19;17.20;99.90
1055;DHT22;516;51.482;7.120;2023-07-31T18:00:06;17.00;99.90
1055;DHT22;516;51.482;7.120;2023-07-31T18:05:55;16.90;99.90
1055;DHT22;516;51.482;7.120;2023-07-31T18:11:42;16.70;99.90
1055;DHT22;516;51.482;7.120;2023-07-31T18:17:30;16.60;99.90
1055;DHT22;516;51.482;7.120;2023-07-31T18:23:17;16.60;99.90
1055;DHT22;516;51.482;7.120;2023-07-31T18:29:04;16.60;99.90
1055;DHT22;516;51.482;7.120;2023-07-31T18:34:52;16.50;99.90
1055;DHT22;516;51.482;7.120;2023-07-31T18:40:43;16.50;99.90
1055;DHT22;516;51.482;7.120;2023-07-31T18:49:56;16.60;99.90
1055;DHT22;516;51.482;7.120;2023-07-31T18:55:44;16.60;99.90
1055;DHT22;516;51.482;7.120;2023-07-31T19:01:31;16.60;99.90
1055;DHT22;516;51.482;7.120;2023-07-31T19:07:19;16.60;99.90
1055;DHT22;516;51.482;7.120;2023-07-31T19:13:06;16.50;99.90
1055;DHT22;516;51.482;7.120;2023-07-31T19:18:55;16.50;99.90
1055;DHT22;516;51.482;7.120;2023-07-31T19:24:43;16.60;99.90
1055;DHT22;516;51.482;7.120;2023-07-31T19:30:31;16.60;99.90
1055;DHT22;516;51.482;7.120;2023-07-31T19:36:20;16.60;99.90
1055;DHT22;516;51.482;7.120;2023-07-31T19:42:08;16.60;99.90
1055;DHT22;516;51.482;7.120;2023-07-31T19:47:55;16.60;99.90
1055;DHT22;516;51.482;7.120;2023-07-31T19:53:43;16.70;99.90
1055;DHT22;516;51.482;7.120;2023-07-31T19:59:31;16.70;99.90
1055;DHT22;516;51.482;7.120;2023-07-31T20:05:18;16.80;99.90
1055;DHT22;516;51.482;7.120;2023-07-31T20:11:06;16.70;99.90
1055;DHT22;516;51.482;7.120;2023-07-31T20:16:56;16.70;99.90
1055;DHT22;516;51.482;7.120;2023-07-31T20:22:43;16.80;99.90
1055;DHT22;516;51.482;7.120;2023-07-31T20:28:31;16.80;99.90
1055;DHT22;516;51.482;7.120;2023-07-31T20:34:19;17.00;99.90
1055;DHT22;516;51.482;7.120;2023-07-31T20:40:07;16.80;99.90
1055;DHT22;516;51.482;7.120;2023-07-31T20:55:47;17.00;99.90
1055;DHT22;516;51.482;7.120;2023-07-31T21:01:34;16.90;99.90
1055;DHT22;516;51.482;7.120;2023-07-31T21:07:22;16.80;99.90
1055;DHT22;516;51.482;7.120;2023-07-31T21:13:09;16.90;99.90
1055;DHT22;516;51.482;7.120;2023-07-31T21:18:57;17.00;99.90
1055;DHT22;516;51.482;7.120;2023-07-31T21:24:45;16.90;99.90
1055;DHT22;516;51.482;7.120;2023-07-31T21:30:33;16.90;99.90
1055;DHT22;516;51.482;7.120;2023-07-31T21:36:22;16.80;99.90
1055;DHT22;516;51.482;7.120;2023-07-31T21:42:09;16.80;99.90
1055;DHT22;516;51.482;7.120;2023-07-31T21:58:00;16.80;99.90
1055;DHT22;516;51.482;7.120;2023-07-31T22:03:48;16.70;99.90
1055;DHT22;516;51.482;7.120;2023-07-31T22:06:33;16.70;99.90
1055;DHT22;516;51.482;7.120;2023-07-31T22:08:58;16.70;99.90
1055;DHT22;516;51.482;7.120;2023-07-31T22:14:46;16.80;99.90
1055;DHT22;516;51.482;7.120;2023-07-31T22:20:34;16.70;99.90
1055;DHT22;516;51.482;7.120;2023-07-31T22:26:21;16.80;99.90
1055;DHT22;516;51.482;7.120;2023-07-31T22:32:09;16.80;99.90
1055;DHT22;516;51.482;7.120;2023-07-31T22:37:57;16.80;99.90
1055;DHT22;516;51.482;7.120;2023-07-31T22:43:44;16.80;99.90
1055;DHT22;516;51.482;7.120;2023-07-31T22:49:48;16.80;99.90
1055;DHT22;516;51.482;7.120;2023-07-31T23:19:23;16.60;99.90
1055;DHT22;516;51.482;7.120;2023-07-31T23:25:10;16.50;99.90
1055;DHT22;516;51.482;7.120;2023-07-31T23:31:02;16.60;99.90
1055;DHT22;516;51.482;7.120;2023-07-31T23:36:50;16.50;99.90
1055;DHT22;516;51.482;7.120;2023-07-31T23:42:38;16.50;99.90
